Time;durP1;ratioP1;P1;durP2;ratioP2;P2;SDS_P1;SDS_P2;PMS_P1;PMS_P2;Temp;Humidity;BMP_temperature;BMP_pressure;BME280_temperature;BME280_humidity;BME280_pressure;Samples;Min_cycle;Max_cycle;Signal;HPM_P1;HPM_P2
2022/10/26 00:02:14;;;;;;;13.02;6.68;;;;;;;;;;4977923;28;20707;-61
2022/10/26 00:04:40;;;;;;;14.60;5.85;;;;;;;;;;4979476;28;20240;-61
2022/10/26 00:07:05;;;;;;;10.63;5.05;;;;;;;;;;4980248;28;20238;-61
2022/10/26 00:09:30;;;;;;;13.88;6.10;;;;;;;;;;4981216;28;20320;-61
2022/10/26 00:11:56;;;;;;;17.40;5.93;;;;;;;;;;4979684;28;20266;-61
2022/10/26 00:14:21;;;;;;;13.85;6.38;;;;;;;;;;4980189;28;20215;-61
2022/10/26 00:16:46;;;;;;;14.77;7.05;;;;;;;;;;4976016;28;20902;-61
2022/10/26 00:19:11;;;;;;;14.43;7.20;;;;;;;;;;4972517;28;20226;-61
2022/10/26 00:21:37;;;;;;;17.73;7.10;;;;;;;;;;4972659;28;20263;-61
2022/10/26 00:24:02;;;;;;;15.73;7.45;;;;;;;;;;4975478;28;20224;-62
2022/10/26 00:26:27;;;;;;;15.73;6.95;;;;;;;;;;4978572;28;20221;-61
2022/10/26 00:28:53;;;;;;;16.38;6.78;;;;;;;;;;4998031;28;20603;-61
2022/10/26 00:31:18;;;;;;;14.27;6.88;;;;;;;;;;4992847;28;20225;-62
2022/10/26 00:33:44;;;;;;;13.30;7.00;;;;;;;;;;4997141;28;20208;-61
2022/10/26 00:36:09;;;;;;;12.65;6.72;;;;;;;;;;4997742;28;20622;-61
2022/10/26 00:38:34;;;;;;;12.50;7.43;;;;;;;;;;4993187;28;20288;-61
2022/10/26 00:41:00;;;;;;;17.50;7.50;;;;;;;;;;4972844;28;20299;-61
2022/10/26 00:43:26;;;;;;;14.45;7.97;;;;;;;;;;4972314;28;20771;-61
2022/10/26 00:45:51;;;;;;;14.80;8.25;;;;;;;;;;4993040;28;20216;-61
2022/10/26 00:48:20;;;;;;;15.63;7.93;;;;;;;;;;4985445;28;20259;-61
2022/10/26 00:50:46;;;;;;;12.90;7.32;;;;;;;;;;5002878;28;20220;-61
2022/10/26 00:53:11;;;;;;;14.45;7.85;;;;;;;;;;5002233;28;20547;-61
2022/10/26 00:55:37;;;;;;;15.07;7.32;;;;;;;;;;5002844;28;20250;-61
2022/10/26 00:58:03;;;;;;;11.68;7.35;;;;;;;;;;5004025;28;20286;-62
2022/10/26 01:00:28;;;;;;;21.15;9.00;;;;;;;;;;5002067;28;20651;-61
2022/10/26 01:02:53;;;;;;;15.57;7.50;;;;;;;;;;4993340;28;20298;-61
2022/10/26 01:05:19;;;;;;;13.82;6.63;;;;;;;;;;4971067;28;20213;-62
2022/10/26 01:07:44;;;;;;;17.67;7.18;;;;;;;;;;4986586;28;20565;-61
2022/10/26 01:10:09;;;;;;;12.57;6.90;;;;;;;;;;4996705;28;20255;-62
2022/10/26 01:12:35;;;;;;;16.60;8.00;;;;;;;;;;5000933;28;20235;-61
2022/10/26 01:15:00;;;;;;;15.60;7.75;;;;;;;;;;5007108;28;20212;-61
2022/10/26 01:17:28;;;;;;;17.75;7.70;;;;;;;;;;5006776;28;20224;-61
2022/10/26 01:20:02;;;;;;;16.00;7.47;;;;;;;;;;5008181;28;20208;-61
2022/10/26 01:22:27;;;;;;;15.32;7.70;;;;;;;;;;5006284;28;20223;-61
2022/10/26 01:24:57;;;;;;;15.15;7.47;;;;;;;;;;5008595;28;20204;-61
2022/10/26 01:27:24;;;;;;;13.48;7.10;;;;;;;;;;5007201;28;20212;-61
2022/10/26 01:30:10;;;;;;;17.60;7.90;;;;;;;;;;5006730;28;20205;-61
2022/10/26 01:32:45;;;;;;;13.50;8.27;;;;;;;;;;4989837;28;20217;-61
2022/10/26 01:35:11;;;;;;;13.68;7.82;;;;;;;;;;4989352;28;20584;-62
2022/10/26 01:37:37;;;;;;;17.83;8.18;;;;;;;;;;4989117;28;20213;-61
2022/10/26 01:40:08;;;;;;;14.05;7.43;;;;;;;;;;5001064;28;20767;-62
2022/10/26 01:42:33;;;;;;;14.80;7.65;;;;;;;;;;5007982;28;20215;-61
2022/10/26 01:45:00;;;;;;;13.45;7.15;;;;;;;;;;5008318;28;20212;-61
2022/10/26 01:47:25;;;;;;;14.18;8.30;;;;;;;;;;5006477;28;20367;-61
2022/10/26 01:49:51;;;;;;;10.50;6.88;;;;;;;;;;5005732;28;20329;-61
2022/10/26 01:52:17;;;;;;;14.75;7.53;;;;;;;;;;5006395;28;20208;-61
2022/10/26 01:54:42;;;;;;;18.90;8.02;;;;;;;;;;5001606;28;20216;-61
2022/10/26 01:57:08;;;;;;;15.57;8.43;;;;;;;;;;4976999;28;20598;-61
2022/10/26 01:59:42;;;;;;;13.25;7.07;;;;;;;;;;4993731;28;20216;-61
2022/10/26 02:02:10;;;;;;;12.95;7.53;;;;;;;;;;4996454;28;21226;-61
2022/10/26 02:04:36;;;;;;;14.68;7.38;;;;;;;;;;4997098;28;20702;-61
2022/10/26 02:07:02;;;;;;;18.33;7.32;;;;;;;;;;4994104;28;20267;-62
2022/10/26 02:09:32;;;;;;;15.85;7.53;;;;;;;;;;4989800;28;20793;-61
2022/10/26 02:11:58;;;;;;;10.95;5.75;;;;;;;;;;4988639;28;20819;-61
2022/10/26 02:14:27;;;;;;;11.05;6.65;;;;;;;;;;4988901;28;20205;-61
2022/10/26 02:16:55;;;;;;;15.73;7.63;;;;;;;;;;4994839;28;20341;-62
2022/10/26 02:19:24;;;;;;;12.48;7.30;;;;;;;;;;4994879;28;20256;-62
2022/10/26 02:21:51;;;;;;;12.63;6.90;;;;;;;;;;4995035;28;21502;-62
2022/10/26 02:24:16;;;;;;;11.98;6.53;;;;;;;;;;4995043;28;20830;-62
2022/10/26 02:26:43;;;;;;;15.45;7.32;;;;;;;;;;4994533;28;20213;-62
2022/10/26 02:29:08;;;;;;;12.05;7.68;;;;;;;;;;4994188;28;20315;-63
2022/10/26 02:31:34;;;;;;;15.38;7.35;;;;;;;;;;4979172;28;20213;-62
2022/10/26 02:34:00;;;;;;;13.50;7.45;;;;;;;;;;4984833;28;20802;-62
2022/10/26 02:36:26;;;;;;;15.13;7.50;;;;;;;;;;4989523;28;20232;-62
2022/10/26 02:38:51;;;;;;;13.68;7.72;;;;;;;;;;4992010;28;20312;-62
2022/10/26 02:41:17;;;;;;;12.98;7.18;;;;;;;;;;4991077;28;20646;-62
2022/10/26 02:43:43;;;;;;;15.10;7.80;;;;;;;;;;4991762;28;20434;-62
2022/10/26 02:46:10;;;;;;;14.68;7.82;;;;;;;;;;4993772;28;20236;-62
2022/10/26 02:48:35;;;;;;;15.98;7.35;;;;;;;;;;4991980;28;20205;-62
2022/10/26 02:51:11;;;;;;;12.57;7.60;;;;;;;;;;4976101;28;20201;-63
2022/10/26 02:53:39;;;;;;;13.52;7.13;;;;;;;;;;4988471;28;20540;-62
2022/10/26 02:56:07;;;;;;;17.50;6.65;;;;;;;;;;4987817;28;20232;-62
2022/10/26 02:58:32;;;;;;;13.82;7.60;;;;;;;;;;4988749;28;20535;-62
2022/10/26 03:00:57;;;;;;;15.65;7.93;;;;;;;;;;4996614;28;20683;-62
2022/10/26 03:03:23;;;;;;;18.17;7.90;;;;;;;;;;4995207;28;20211;-62
2022/10/26 03:05:48;;;;;;;18.13;7.45;;;;;;;;;;5001927;28;20208;-62
2022/10/26 03:08:13;;;;;;;11.32;6.82;;;;;;;;;;5001346;28;20223;-63
2022/10/26 03:10:39;;;;;;;20.25;7.63;;;;;;;;;;5002395;28;21123;-62
2022/10/26 03:13:05;;;;;;;16.63;7.43;;;;;;;;;;5002157;28;20220;-62
2022/10/26 03:15:30;;;;;;;16.42;7.53;;;;;;;;;;4983102;28;20224;-62
2022/10/26 03:17:55;;;;;;;16.05;7.38;;;;;;;;;;4967664;28;20245;-62
2022/10/26 03:20:20;;;;;;;17.02;7.85;;;;;;;;;;4969652;28;20232;-62
2022/10/26 03:22:46;;;;;;;15.07;6.85;;;;;;;;;;4974936;28;20621;-62
2022/10/26 03:25:14;;;;;;;18.00;8.07;;;;;;;;;;4976384;28;20228;-63
2022/10/26 03:27:39;;;;;;;14.48;7.47;;;;;;;;;;4996183;28;20213;-62
2022/10/26 03:30:05;;;;;;;16.30;6.90;;;;;;;;;;4995652;28;20215;-62
2022/10/26 03:32:30;;;;;;;16.63;7.40;;;;;;;;;;4977657;28;20212;-62
2022/10/26 03:34:55;;;;;;;16.30;7.07;;;;;;;;;;4976251;28;20205;-62
2022/10/26 03:37:20;;;;;;;16.95;6.72;;;;;;;;;;4973072;28;20264;-62
2022/10/26 03:39:46;;;;;;;15.95;7.80;;;;;;;;;;4970963;28;20904;-62
2022/10/26 03:42:11;;;;;;;16.95;7.03;;;;;;;;;;4969203;28;20521;-62
2022/10/26 03:44:36;;;;;;;18.15;7.00;;;;;;;;;;4973299;28;20659;-62
2022/10/26 03:47:01;;;;;;;17.02;7.38;;;;;;;;;;4976311;28;20704;-63
2022/10/26 03:49:27;;;;;;;16.40;7.50;;;;;;;;;;4991257;28;20556;-62
2022/10/26 03:51:52;;;;;;;13.57;7.22;;;;;;;;;;4976671;28;20251;-62
2022/10/26 03:54:18;;;;;;;15.77;7.40;;;;;;;;;;4976780;28;20372;-63
2022/10/26 03:56:43;;;;;;;13.93;7.57;;;;;;;;;;4994686;28;20454;-62
2022/10/26 03:59:08;;;;;;;16.38;7.55;;;;;;;;;;4994369;28;20217;-63
2022/10/26 04:01:33;;;;;;;15.57;7.63;;;;;;;;;;4989309;28;20236;-62
2022/10/26 04:03:59;;;;;;;14.88;6.70;;;;;;;;;;4989713;28;20551;-62
2022/10/26 04:06:24;;;;;;;14.27;7.57;;;;;;;;;;4993317;28;20209;-62
2022/10/26 04:08:50;;;;;;;15.45;7.78;;;;;;;;;;4998905;28;20216;-62
2022/10/26 04:11:15;;;;;;;15.30;7.30;;;;;;;;;;4998581;28;20230;-62
2022/10/26 04:13:41;;;;;;;15.90;7.60;;;;;;;;;;4999203;28;20304;-62
2022/10/26 04:16:06;;;;;;;12.63;7.55;;;;;;;;;;4980542;28;20229;-62
2022/10/26 04:18:31;;;;;;;13.90;7.22;;;;;;;;;;4978765;28;20592;-62
2022/10/26 04:20:59;;;;;;;14.00;7.93;;;;;;;;;;4979721;28;20259;-62
2022/10/26 04:23:24;;;;;;;12.35;7.90;;;;;;;;;;4993202;28;20247;-62
2022/10/26 04:25:50;;;;;;;15.13;7.32;;;;;;;;;;4991177;28;20216;-62
2022/10/26 04:28:15;;;;;;;18.17;8.48;;;;;;;;;;4998924;28;20217;-63
2022/10/26 04:30:40;;;;;;;17.20;6.72;;;;;;;;;;4986681;28;20311;-62
2022/10/26 04:33:06;;;;;;;16.30;7.07;;;;;;;;;;4977912;28;20225;-62
2022/10/26 04:35:31;;;;;;;13.98;7.30;;;;;;;;;;4996233;28;20930;-62
2022/10/26 04:38:00;;;;;;;18.40;7.10;;;;;;;;;;4998630;28;20240;-62
2022/10/26 04:40:26;;;;;;;15.07;7.18;;;;;;;;;;4981618;28;20209;-62
2022/10/26 04:42:51;;;;;;;16.58;7.00;;;;;;;;;;4994064;28;20227;-62
2022/10/26 04:45:16;;;;;;;22.30;7.85;;;;;;;;;;4978216;28;20221;-63
2022/10/26 04:47:42;;;;;;;13.90;7.40;;;;;;;;;;4974563;28;20213;-62
2022/10/26 04:50:07;;;;;;;16.35;7.18;;;;;;;;;;4972083;28;20500;-62
2022/10/26 04:52:33;;;;;;;13.20;6.68;;;;;;;;;;4990445;28;20216;-62
2022/10/26 04:54:58;;;;;;;12.48;6.57;;;;;;;;;;4996375;28;20212;-62
2022/10/26 04:57:23;;;;;;;18.17;7.03;;;;;;;;;;4997322;28;20239;-62
2022/10/26 04:59:49;;;;;;;17.10;6.47;;;;;;;;;;4997577;28;20266;-62
2022/10/26 05:02:14;;;;;;;20.38;7.35;;;;;;;;;;4997285;28;20266;-62
2022/10/26 05:04:39;;;;;;;15.93;7.70;;;;;;;;;;4998335;28;20220;-62
2022/10/26 05:07:04;;;;;;;16.70;7.53;;;;;;;;;;4996712;28;20220;-62
2022/10/26 05:09:30;;;;;;;14.82;7.07;;;;;;;;;;4994873;28;20970;-62
2022/10/26 05:11:55;;;;;;;14.40;7.32;;;;;;;;;;4991519;28;20303;-62
2022/10/26 05:14:20;;;;;;;17.92;7.72;;;;;;;;;;4989847;28;20223;-63
2022/10/26 05:16:46;;;;;;;14.55;7.07;;;;;;;;;;4975728;28;20236;-62
2022/10/26 05:19:11;;;;;;;17.65;7.68;;;;;;;;;;4984371;28;20236;-62
2022/10/26 05:21:36;;;;;;;15.60;7.60;;;;;;;;;;4983857;28;20260;-62
2022/10/26 05:24:01;;;;;;;15.65;7.85;;;;;;;;;;4984110;28;20586;-62
2022/10/26 05:26:27;;;;;;;15.85;7.60;;;;;;;;;;5002267;28;20664;-62
2022/10/26 05:28:52;;;;;;;16.60;8.73;;;;;;;;;;5003005;28;20212;-62
2022/10/26 05:31:17;;;;;;;14.75;7.65;;;;;;;;;;4992867;28;20217;-62
2022/10/26 05:33:43;;;;;;;20.20;8.32;;;;;;;;;;5013233;28;20209;-62
2022/10/26 05:36:08;;;;;;;14.23;7.53;;;;;;;;;;5012869;28;20593;-63
2022/10/26 05:38:33;;;;;;;13.82;7.40;;;;;;;;;;5013732;28;20268;-62
2022/10/26 05:41:00;;;;;;;12.85;7.00;;;;;;;;;;5013655;28;20565;-62
2022/10/26 05:43:26;;;;;;;15.57;7.20;;;;;;;;;;5012719;28;20634;-62
2022/10/26 05:45:51;;;;;;;20.15;7.55;;;;;;;;;;5013853;28;20287;-62
2022/10/26 05:48:16;;;;;;;12.80;7.13;;;;;;;;;;5013235;28;20294;-63
2022/10/26 05:50:42;;;;;;;15.02;7.03;;;;;;;;;;5013065;28;20283;-62
2022/10/26 05:53:07;;;;;;;11.27;7.05;;;;;;;;;;5004511;28;20217;-63
2022/10/26 05:55:32;;;;;;;17.17;7.30;;;;;;;;;;4978392;28;20277;-62
2022/10/26 05:57:58;;;;;;;15.02;7.50;;;;;;;;;;4968707;28;20576;-62
2022/10/26 06:00:24;;;;;;;11.90;6.93;;;;;;;;;;4971110;28;20224;-62
2022/10/26 06:02:53;;;;;;;12.80;6.65;;;;;;;;;;4994006;28;21043;-62
2022/10/26 06:05:20;;;;;;;17.02;6.40;;;;;;;;;;4997422;28;20217;-62
2022/10/26 06:07:45;;;;;;;15.50;7.00;;;;;;;;;;4996491;28;20227;-62
2022/10/26 06:10:11;;;;;;;17.42;7.20;;;;;;;;;;4996561;28;20228;-62
2022/10/26 06:12:36;;;;;;;14.95;6.32;;;;;;;;;;4997101;28;20529;-62
2022/10/26 06:15:02;;;;;;;14.60;6.40;;;;;;;;;;4991051;28;20209;-63
2022/10/26 06:17:31;;;;;;;12.88;6.43;;;;;;;;;;4974188;28;20217;-63
2022/10/26 06:20:03;;;;;;;14.38;6.07;;;;;;;;;;4988673;28;20225;-62
2022/10/26 06:22:28;;;;;;;11.25;5.78;;;;;;;;;;4989406;28;20205;-62
2022/10/26 06:24:58;;;;;;;11.18;6.32;;;;;;;;;;4992194;28;20266;-62
2022/10/26 06:27:27;;;;;;;13.73;6.63;;;;;;;;;;4995290;28;20215;-62
2022/10/26 06:29:56;;;;;;;17.67;6.63;;;;;;;;;;5004852;28;20568;-61
2022/10/26 06:32:21;;;;;;;15.85;6.60;;;;;;;;;;4987334;28;20619;-61
2022/10/26 06:34:47;;;;;;;16.60;6.30;;;;;;;;;;4987576;28;20275;-60
2022/10/26 06:37:12;;;;;;;17.02;7.07;;;;;;;;;;5002773;28;20228;-61
2022/10/26 06:39:38;;;;;;;15.90;5.45;;;;;;;;;;5006823;28;20219;-61
2022/10/26 06:42:04;;;;;;;13.27;5.85;;;;;;;;;;5005837;28;20215;-61
2022/10/26 06:44:29;;;;;;;14.20;5.90;;;;;;;;;;5007371;28;20411;-60
2022/10/26 06:46:58;;;;;;;16.27;7.47;;;;;;;;;;5005896;28;20484;-61
2022/10/26 06:49:29;;;;;;;11.63;6.32;;;;;;;;;;5005511;28;20265;-61
2022/10/26 06:52:04;;;;;;;15.55;6.38;;;;;;;;;;5005999;28;20570;-62
2022/10/26 06:54:34;;;;;;;14.63;6.35;;;;;;;;;;5004977;28;20408;-62
2022/10/26 06:57:00;;;;;;;12.65;5.72;;;;;;;;;;5003118;28;20523;-61
2022/10/26 06:59:32;;;;;;;14.50;5.82;;;;;;;;;;5006200;28;20594;-60
2022/10/26 07:01:57;;;;;;;13.27;5.90;;;;;;;;;;5005147;28;20634;-61
2022/10/26 07:04:22;;;;;;;15.10;5.38;;;;;;;;;;5006216;28;20208;-62
2022/10/26 07:06:47;;;;;;;10.60;5.55;;;;;;;;;;5005881;28;20220;-61
2022/10/26 07:09:13;;;;;;;12.57;5.63;;;;;;;;;;5006221;28;20197;-62
2022/10/26 07:11:38;;;;;;;14.88;5.63;;;;;;;;;;5006072;28;20447;-61
2022/10/26 07:14:03;;;;;;;12.10;5.65;;;;;;;;;;5005412;28;20518;-61
2022/10/26 07:16:28;;;;;;;15.32;5.07;;;;;;;;;;5006814;28;20304;-62
2022/10/26 07:18:54;;;;;;;11.23;5.32;;;;;;;;;;5003975;28;20555;-61
2022/10/26 07:21:19;;;;;;;15.73;5.88;;;;;;;;;;5005209;28;20227;-61
2022/10/26 07:23:44;;;;;;;11.10;5.35;;;;;;;;;;5006570;28;20227;-62
2022/10/26 07:26:09;;;;;;;12.07;5.13;;;;;;;;;;5006025;28;20615;-62
2022/10/26 07:28:35;;;;;;;15.85;4.68;;;;;;;;;;5005773;28;20299;-62
2022/10/26 07:31:00;;;;;;;14.25;5.07;;;;;;;;;;5006090;28;20212;-63
2022/10/26 07:33:26;;;;;;;9.32;4.65;;;;;;;;;;5006195;28;20811;-63
2022/10/26 07:35:53;;;;;;;15.93;5.45;;;;;;;;;;5005660;28;20224;-63
2022/10/26 07:38:18;;;;;;;11.20;4.30;;;;;;;;;;5007018;28;20208;-63
2022/10/26 07:40:43;;;;;;;10.18;4.55;;;;;;;;;;5009765;28;20254;-63
2022/10/26 07:43:08;;;;;;;10.50;4.32;;;;;;;;;;5009006;28;20545;-63
2022/10/26 07:45:35;;;;;;;9.35;4.18;;;;;;;;;;5010312;28;20212;-63
2022/10/26 07:48:00;;;;;;;10.00;4.15;;;;;;;;;;5009184;28;20197;-63
2022/10/26 07:50:26;;;;;;;12.85;4.55;;;;;;;;;;5009087;28;20212;-62
2022/10/26 07:52:51;;;;;;;13.70;5.10;;;;;;;;;;5010811;28;20219;-63
2022/10/26 07:55:17;;;;;;;9.68;4.00;;;;;;;;;;5008800;28;20262;-64
2022/10/26 07:57:42;;;;;;;8.63;4.00;;;;;;;;;;5012080;28;20838;-64
2022/10/26 08:00:08;;;;;;;7.90;3.95;;;;;;;;;;5009599;28;20227;-64
2022/10/26 08:02:33;;;;;;;10.48;3.60;;;;;;;;;;5010190;28;20231;-64
2022/10/26 08:04:58;;;;;;;9.98;3.90;;;;;;;;;;5021141;28;20489;-63
2022/10/26 08:07:25;;;;;;;10.82;3.80;;;;;;;;;;5030460;28;20566;-64
2022/10/26 08:09:50;;;;;;;9.07;3.60;;;;;;;;;;5029675;28;20222;-63
2022/10/26 08:12:15;;;;;;;8.48;3.80;;;;;;;;;;5029736;28;20208;-65
2022/10/26 08:14:41;;;;;;;10.25;3.90;;;;;;;;;;5027349;28;20705;-65
2022/10/26 08:17:06;;;;;;;15.10;4.00;;;;;;;;;;5018479;28;20282;-65
2022/10/26 08:19:31;;;;;;;11.27;3.63;;;;;;;;;;5009774;28;20221;-65
2022/10/26 08:21:57;;;;;;;10.10;3.53;;;;;;;;;;5009601;28;20204;-65
2022/10/26 08:24:22;;;;;;;10.18;3.58;;;;;;;;;;5008743;28;20211;-65
2022/10/26 08:26:47;;;;;;;9.55;3.60;;;;;;;;;;5009563;28;20200;-64
2022/10/26 08:29:13;;;;;;;8.95;3.25;;;;;;;;;;5009335;28;20540;-63
2022/10/26 08:31:38;;;;;;;10.05;3.22;;;;;;;;;;5009292;28;20270;-63
2022/10/26 08:34:03;;;;;;;9.05;3.00;;;;;;;;;;5009436;28;20303;-64
2022/10/26 08:36:28;;;;;;;8.70;3.03;;;;;;;;;;5008254;28;20490;-64
2022/10/26 08:38:54;;;;;;;9.45;2.95;;;;;;;;;;5007510;28;20204;-63
2022/10/26 08:41:19;;;;;;;8.93;2.88;;;;;;;;;;5017773;28;20558;-64
2022/10/26 08:43:46;;;;;;;5.68;2.60;;;;;;;;;;5008311;28;20299;-63
2022/10/26 08:46:13;;;;;;;7.20;2.47;;;;;;;;;;5007493;28;20329;-64
2022/10/26 08:48:39;;;;;;;9.40;2.40;;;;;;;;;;5007795;28;20232;-64
2022/10/26 08:51:06;;;;;;;7.25;2.65;;;;;;;;;;5008519;28;20224;-64
2022/10/26 08:53:36;;;;;;;8.65;2.58;;;;;;;;;;5009243;28;20664;-64
2022/10/26 08:56:08;;;;;;;8.25;2.38;;;;;;;;;;5008963;28;20233;-64
2022/10/26 08:58:37;;;;;;;5.30;2.20;;;;;;;;;;4990586;28;20204;-64
2022/10/26 09:01:04;;;;;;;7.85;2.33;;;;;;;;;;5008662;28;20236;-64
2022/10/26 09:03:29;;;;;;;7.20;2.30;;;;;;;;;;5007655;28;20762;-64
2022/10/26 09:05:58;;;;;;;6.97;2.40;;;;;;;;;;5006719;28;20208;-64
2022/10/26 09:08:29;;;;;;;5.55;1.90;;;;;;;;;;5007133;28;20216;-64
2022/10/26 09:11:01;;;;;;;10.43;2.40;;;;;;;;;;5010032;28;20569;-63
2022/10/26 09:13:27;;;;;;;6.05;2.17;;;;;;;;;;5006531;28;20232;-64
2022/10/26 09:15:53;;;;;;;7.40;2.40;;;;;;;;;;5007430;28;20607;-64
2022/10/26 09:18:22;;;;;;;6.25;2.22;;;;;;;;;;5008163;28;20217;-64
2022/10/26 09:21:00;;;;;;;8.32;2.58;;;;;;;;;;5014771;28;20216;-64
2022/10/26 09:23:28;;;;;;;4.03;1.80;;;;;;;;;;5028715;28;20212;-64
2022/10/26 09:25:58;;;;;;;6.40;1.80;;;;;;;;;;5027106;28;20196;-64
2022/10/26 09:28:23;;;;;;;6.72;1.70;;;;;;;;;;5025521;28;20211;-64
2022/10/26 09:30:48;;;;;;;5.55;2.22;;;;;;;;;;5026605;28;20200;-64
2022/10/26 09:33:16;;;;;;;5.80;1.70;;;;;;;;;;5026325;28;20872;-66
2022/10/26 09:35:43;;;;;;;6.13;1.70;;;;;;;;;;5014260;28;20212;-65
2022/10/26 09:38:13;;;;;;;6.70;1.80;;;;;;;;;;5006473;28;20743;-65
2022/10/26 09:40:40;;;;;;;6.35;1.77;;;;;;;;;;5003951;28;20279;-65
2022/10/26 09:43:08;;;;;;;5.60;1.75;;;;;;;;;;5022403;28;20277;-66
2022/10/26 09:45:34;;;;;;;5.53;1.70;;;;;;;;;;5026411;28;20551;-65
2022/10/26 09:48:04;;;;;;;6.47;1.52;;;;;;;;;;5014281;28;20201;-65
2022/10/26 09:50:32;;;;;;;3.90;1.58;;;;;;;;;;5006644;28;20266;-65
2022/10/26 09:52:57;;;;;;;7.93;2.47;;;;;;;;;;5006365;28;20216;-65
2022/10/26 09:55:23;;;;;;;5.90;1.63;;;;;;;;;;5005816;28;20228;-65
2022/10/26 09:57:49;;;;;;;4.72;1.85;;;;;;;;;;5005820;28;20228;-65
2022/10/26 10:00:15;;;;;;;6.95;1.67;;;;;;;;;;5007034;28;20645;-65
2022/10/26 10:02:43;;;;;;;5.65;1.90;;;;;;;;;;5005386;28;20212;-64
2022/10/26 10:05:21;;;;;;;8.00;2.25;;;;;;;;;;5007015;28;20251;-65
2022/10/26 10:07:47;;;;;;;7.75;2.10;;;;;;;;;;5007889;28;20235;-65
2022/10/26 10:10:14;;;;;;;4.72;1.83;;;;;;;;;;5006883;28;20231;-65
2022/10/26 10:12:40;;;;;;;4.15;1.88;;;;;;;;;;5006366;28;20212;-65
2022/10/26 10:15:12;;;;;;;6.80;2.20;;;;;;;;;;5007651;28;20579;-65
2022/10/26 10:17:37;;;;;;;6.95;1.85;;;;;;;;;;5026630;28;20247;-64
2022/10/26 10:20:06;;;;;;;5.80;1.92;;;;;;;;;;5025504;28;20259;-66
2022/10/26 10:22:31;;;;;;;9.38;2.45;;;;;;;;;;5016080;28;20607;-65
2022/10/26 10:24:57;;;;;;;7.15;2.30;;;;;;;;;;5007278;28;20228;-65
2022/10/26 10:27:23;;;;;;;6.40;2.45;;;;;;;;;;5007579;28;20208;-63
2022/10/26 10:29:52;;;;;;;6.68;2.28;;;;;;;;;;5006791;28;20707;-63
2022/10/26 10:32:19;;;;;;;7.28;2.35;;;;;;;;;;5005710;28;20220;-62
2022/10/26 10:34:45;;;;;;;6.20;2.42;;;;;;;;;;5007188;28;20206;-63
2022/10/26 10:37:22;;;;;;;10.23;2.97;;;;;;;;;;5000008;28;20232;-64
2022/10/26 10:39:47;;;;;;;10.88;3.08;;;;;;;;;;4998524;28;20207;-63
2022/10/26 10:42:14;;;;;;;8.55;2.90;;;;;;;;;;4999513;28;20224;-63
2022/10/26 10:44:39;;;;;;;8.10;3.63;;;;;;;;;;4993320;28;20662;-63
2022/10/26 10:47:05;;;;;;;7.15;3.13;;;;;;;;;;4991144;28;20201;-63
2022/10/26 10:49:31;;;;;;;11.93;2.80;;;;;;;;;;4995485;28;20218;-64
2022/10/26 10:51:56;;;;;;;8.55;2.92;;;;;;;;;;4994322;28;20240;-64
2022/10/26 10:54:25;;;;;;;8.25;2.90;;;;;;;;;;4997083;28;20243;-63
2022/10/26 10:56:51;;;;;;;6.90;3.22;;;;;;;;;;4994387;28;20228;-63
2022/10/26 10:59:28;;;;;;;8.85;2.90;;;;;;;;;;4999184;28;20399;-63
2022/10/26 11:01:58;;;;;;;7.75;2.90;;;;;;;;;;5006329;28;20216;-63
2022/10/26 11:04:32;;;;;;;9.13;3.38;;;;;;;;;;5005289;28;20837;-64
2022/10/26 11:06:58;;;;;;;9.82;3.08;;;;;;;;;;5006013;28;20618;-63
2022/10/26 11:09:24;;;;;;;6.85;3.03;;;;;;;;;;5006579;28;20224;-64
2022/10/26 11:11:52;;;;;;;7.47;2.92;;;;;;;;;;5005603;28;20339;-63
2022/10/26 11:14:18;;;;;;;9.52;2.45;;;;;;;;;;5009878;28;20216;-64
2022/10/26 11:16:48;;;;;;;7.85;2.80;;;;;;;;;;4988008;28;20217;-63
2022/10/26 11:19:17;;;;;;;10.27;3.30;;;;;;;;;;4988509;28;20275;-63
2022/10/26 11:21:42;;;;;;;8.52;2.80;;;;;;;;;;5026010;28;20234;-63
2022/10/26 11:24:12;;;;;;;7.63;2.83;;;;;;;;;;5010257;28;20239;-63
2022/10/26 11:26:43;;;;;;;6.30;2.60;;;;;;;;;;5010234;28;20212;-63
2022/10/26 11:29:16;;;;;;;8.43;3.10;;;;;;;;;;5025396;28;20634;-63
2022/10/26 11:31:43;;;;;;;7.85;2.70;;;;;;;;;;5025432;28;20291;-64
2022/10/26 11:34:29;;;;;;;6.53;2.35;;;;;;;;;;5024169;28;20231;-63
2022/10/26 11:36:56;;;;;;;6.97;2.50;;;;;;;;;;5026069;28;20224;-63
2022/10/26 11:39:27;;;;;;;9.50;2.38;;;;;;;;;;5017707;28;20202;-64
2022/10/26 11:41:59;;;;;;;10.27;2.38;;;;;;;;;;4988475;28;20201;-63
2022/10/26 11:44:34;;;;;;;8.05;2.78;;;;;;;;;;4990111;28;20224;-64
2022/10/26 11:47:00;;;;;;;12.23;3.00;;;;;;;;;;4989735;28;20576;-63
2022/10/26 11:49:31;;;;;;;5.47;2.60;;;;;;;;;;5003720;28;20205;-63
2022/10/26 11:52:03;;;;;;;6.35;2.50;;;;;;;;;;5005924;28;20217;-63
2022/10/26 11:54:32;;;;;;;11.70;2.80;;;;;;;;;;4996864;28;20217;-63
2022/10/26 11:56:58;;;;;;;10.65;2.70;;;;;;;;;;4990435;28;20560;-64
2022/10/26 11:59:25;;;;;;;9.27;3.00;;;;;;;;;;5005144;28;20213;-63
2022/10/26 12:01:59;;;;;;;8.52;2.72;;;;;;;;;;5005366;28;20359;-63
2022/10/26 12:04:29;;;;;;;9.40;2.47;;;;;;;;;;5005268;28;20212;-63
2022/10/26 12:06:54;;;;;;;7.53;2.58;;;;;;;;;;5005352;28;20202;-63
2022/10/26 12:09:21;;;;;;;7.18;2.33;;;;;;;;;;5004294;28;20228;-63
2022/10/26 12:11:48;;;;;;;6.50;1.90;;;;;;;;;;5005343;28;20205;-63
2022/10/26 12:14:16;;;;;;;12.98;2.47;;;;;;;;;;5005647;28;20216;-63
2022/10/26 12:16:45;;;;;;;7.18;2.30;;;;;;;;;;5004422;28;20651;-63
2022/10/26 12:19:15;;;;;;;12.88;2.88;;;;;;;;;;4989224;28;20216;-63
2022/10/26 12:21:42;;;;;;;8.50;2.67;;;;;;;;;;4994619;28;20680;-63
2022/10/26 12:24:20;;;;;;;7.25;2.53;;;;;;;;;;4978764;28;20766;-65
2022/10/26 12:26:50;;;;;;;8.50;2.85;;;;;;;;;;4994018;28;20220;-65
2022/10/26 12:29:38;;;;;;;7.35;2.50;;;;;;;;;;4992692;28;20213;-65
2022/10/26 12:32:04;;;;;;;6.65;2.60;;;;;;;;;;4977820;28;20260;-65
2022/10/26 12:34:29;;;;;;;7.22;2.35;;;;;;;;;;4992221;28;20393;-65
2022/10/26 12:36:54;;;;;;;6.15;2.45;;;;;;;;;;4993188;28;20631;-65
2022/10/26 12:39:26;;;;;;;6.68;2.45;;;;;;;;;;4978745;28;20308;-65
2022/10/26 12:42:09;;;;;;;8.43;2.58;;;;;;;;;;4981791;28;20627;-65
2022/10/26 12:44:34;;;;;;;9.23;2.30;;;;;;;;;;4987681;28;20221;-65
2022/10/26 12:46:59;;;;;;;8.18;2.60;;;;;;;;;;4989560;28;20205;-65
2022/10/26 12:49:44;;;;;;;7.55;2.53;;;;;;;;;;5003754;28;20228;-65
2022/10/26 12:52:18;;;;;;;8.25;2.63;;;;;;;;;;4988671;28;20213;-64
2022/10/26 12:54:46;;;;;;;9.50;2.50;;;;;;;;;;4989331;28;20612;-65
2022/10/26 12:57:18;;;;;;;8.48;2.42;;;;;;;;;;4988869;28;20249;-65
2022/10/26 12:59:45;;;;;;;5.55;2.22;;;;;;;;;;4989098;28;20297;-65
2022/10/26 13:02:20;;;;;;;7.57;1.98;;;;;;;;;;5004122;28;20209;-65
2022/10/26 13:04:50;;;;;;;6.65;2.20;;;;;;;;;;5001328;28;20641;-65
2022/10/26 13:07:17;;;;;;;7.47;2.00;;;;;;;;;;4987228;28;20449;-65
2022/10/26 13:09:44;;;;;;;8.63;2.00;;;;;;;;;;4988130;28;20217;-65
2022/10/26 13:12:09;;;;;;;8.45;2.25;;;;;;;;;;4987842;28;20217;-65
2022/10/26 13:14:35;;;;;;;6.70;2.08;;;;;;;;;;4989562;28;20205;-65
2022/10/26 13:17:01;;;;;;;4.97;1.90;;;;;;;;;;5003465;28;20225;-66
2022/10/26 13:19:29;;;;;;;7.35;2.10;;;;;;;;;;5002972;28;20586;-65
2022/10/26 13:21:56;;;;;;;6.75;2.28;;;;;;;;;;5003861;28;20209;-65
2022/10/26 13:24:22;;;;;;;8.18;2.28;;;;;;;;;;5003751;28;20669;-65
2022/10/26 13:27:03;;;;;;;7.97;2.47;;;;;;;;;;5002704;28;20220;-65
2022/10/26 13:29:29;;;;;;;6.90;2.30;;;;;;;;;;4988746;28;20217;-65
2022/10/26 13:31:54;;;;;;;4.63;2.10;;;;;;;;;;4988779;28;20216;-65
2022/10/26 13:34:20;;;;;;;5.45;2.15;;;;;;;;;;4987347;28;20228;-65
2022/10/26 13:36:50;;;;;;;7.55;2.08;;;;;;;;;;4977958;28;20581;-65
2022/10/26 13:39:16;;;;;;;6.72;2.00;;;;;;;;;;4976563;28;20243;-65
2022/10/26 13:41:42;;;;;;;4.50;1.90;;;;;;;;;;4987924;28;20225;-65
2022/10/26 13:44:12;;;;;;;6.07;2.00;;;;;;;;;;4991945;28;20209;-65
2022/10/26 13:46:38;;;;;;;8.02;2.40;;;;;;;;;;4998331;28;20426;-64
2022/10/26 13:49:05;;;;;;;4.78;2.03;;;;;;;;;;4971816;28;20221;-65
2022/10/26 13:51:34;;;;;;;6.90;2.10;;;;;;;;;;4977098;28;20213;-65
2022/10/26 13:54:05;;;;;;;5.10;2.05;;;;;;;;;;4987347;28;20295;-64
2022/10/26 13:56:34;;;;;;;5.00;1.77;;;;;;;;;;4995795;28;20233;-65
2022/10/26 13:59:04;;;;;;;6.50;2.35;;;;;;;;;;5003487;28;20205;-65
2022/10/26 14:01:29;;;;;;;7.10;2.42;;;;;;;;;;4973684;28;20513;-65
2022/10/26 14:03:55;;;;;;;9.90;2.25;;;;;;;;;;5006226;28;20303;-65
2022/10/26 14:06:27;;;;;;;5.47;2.10;;;;;;;;;;4981463;28;20680;-65
2022/10/26 14:08:53;;;;;;;5.65;2.38;;;;;;;;;;4987519;28;20295;-65
2022/10/26 14:11:20;;;;;;;7.63;2.60;;;;;;;;;;5002917;28;20688;-65
2022/10/26 14:13:46;;;;;;;5.30;2.30;;;;;;;;;;5002941;28;20223;-65
2022/10/26 14:16:11;;;;;;;8.10;2.10;;;;;;;;;;5001942;28;20225;-66
2022/10/26 14:18:37;;;;;;;6.68;2.35;;;;;;;;;;5002121;28;20244;-65
2022/10/26 14:21:02;;;;;;;8.80;4.38;;;;;;;;;;4986244;28;20259;-66
2022/10/26 14:23:34;;;;;;;12.40;6.30;;;;;;;;;;4987341;28;20213;-65
2022/10/26 14:25:59;;;;;;;7.95;2.92;;;;;;;;;;4987863;28;20288;-65
2022/10/26 14:28:26;;;;;;;5.43;2.42;;;;;;;;;;4987663;28;20315;-64
2022/10/26 14:30:51;;;;;;;6.07;2.33;;;;;;;;;;5001877;28;20712;-64
2022/10/26 14:33:18;;;;;;;4.72;1.92;;;;;;;;;;4986865;28;20221;-65
2022/10/26 14:35:43;;;;;;;6.32;2.08;;;;;;;;;;4987843;28;20213;-64